sensor_id;sensor_type;location;lat;lon;timestamp;P1;durP1;ratioP1;P2;durP2;ratioP2
9763;SDS011;4921;43.214;27.936;2023-09-19T00:02:07;7.30;;;4.03;;
9763;SDS011;4921;43.214;27.936;2023-09-19T00:04:36;4.00;;;3.60;;
9763;SDS011;4921;43.214;27.936;2023-09-19T00:07:05;4.37;;;3.97;;
9763;SDS011;4921;43.214;27.936;2023-09-19T00:09:32;4.27;;;3.90;;
9763;SDS011;4921;43.214;27.936;2023-09-19T00:12:03;4.27;;;3.97;;
9763;SDS011;4921;43.214;27.936;2023-09-19T00:14:30;4.53;;;4.07;;
9763;SDS011;4921;43.214;27.936;2023-09-19T00:16:59;4.23;;;3.93;;
9763;SDS011;4921;43.214;27.936;2023-09-19T00:19:31;6.43;;;4.13;;
9763;SDS011;4921;43.214;27.936;2023-09-19T00:22:00;4.57;;;3.87;;
9763;SDS011;4921;43.214;27.936;2023-09-19T00:24:28;4.43;;;3.77;;
9763;SDS011;4921;43.214;27.936;2023-09-19T00:26:56;4.13;;;3.80;;
9763;SDS011;4921;43.214;27.936;2023-09-19T00:29:24;4.23;;;3.73;;
9763;SDS011;4921;43.214;27.936;2023-09-19T00:31:54;4.87;;;4.27;;
9763;SDS011;4921;43.214;27.936;2023-09-19T00:34:22;4.17;;;3.70;;
9763;SDS011;4921;43.214;27.936;2023-09-19T00:36:50;5.17;;;4.07;;
9763;SDS011;4921;43.214;27.936;2023-09-19T00:39:21;4.03;;;3.80;;
9763;SDS011;4921;43.214;27.936;2023-09-19T00:41:50;4.17;;;3.77;;
9763;SDS011;4921;43.214;27.936;2023-09-19T00:44:18;4.67;;;4.20;;
9763;SDS011;4921;43.214;27.936;2023-09-19T00:46:46;4.60;;;4.20;;
9763;SDS011;4921;43.214;27.936;2023-09-19T00:49:15;4.13;;;3.83;;
9763;SDS011;4921;43.214;27.936;2023-09-19T00:51:42;5.50;;;4.37;;
9763;SDS011;4921;43.214;27.936;2023-09-19T00:54:12;4.73;;;3.93;;
9763;SDS011;4921;43.214;27.936;2023-09-19T00:56:45;4.30;;;4.00;;
9763;SDS011;4921;43.214;27.936;2023-09-19T00:59:14;4.33;;;3.93;;
9763;SDS011;4921;43.214;27.936;2023-09-19T01:01:41;4.20;;;3.90;;
9763;SDS011;4921;43.214;27.936;2023-09-19T01:04:11;4.37;;;3.97;;
9763;SDS011;4921;43.214;27.936;2023-09-19T01:06:38;4.00;;;3.60;;
9763;SDS011;4921;43.214;27.936;2023-09-19T01:09:05;4.43;;;4.13;;
9763;SDS011;4921;43.214;27.936;2023-09-19T01:11:33;4.87;;;4.47;;
9763;SDS011;4921;43.214;27.936;2023-09-19T01:14:11;4.50;;;4.03;;
9763;SDS011;4921;43.214;27.936;2023-09-19T01:16:48;4.53;;;3.93;;
9763;SDS011;4921;43.214;27.936;2023-09-19T01:19:33;5.73;;;4.50;;
9763;SDS011;4921;43.214;27.936;2023-09-19T01:22:32;5.17;;;4.63;;
9763;SDS011;4921;43.214;27.936;2023-09-19T01:25:20;7.83;;;4.80;;
9763;SDS011;4921;43.214;27.936;2023-09-19T01:28:11;7.10;;;5.00;;
9763;SDS011;4921;43.214;27.936;2023-09-19T01:30:50;6.47;;;4.20;;
9763;SDS011;4921;43.214;27.936;2023-09-19T01:33:23;6.10;;;4.77;;
9763;SDS011;4921;43.214;27.936;2023-09-19T01:35:51;6.83;;;5.03;;
9763;SDS011;4921;43.214;27.936;2023-09-19T01:38:22;6.90;;;4.40;;
9763;SDS011;4921;43.214;27.936;2023-09-19T01:40:51;5.17;;;4.43;;
9763;SDS011;4921;43.214;27.936;2023-09-19T01:43:30;4.77;;;4.23;;
9763;SDS011;4921;43.214;27.936;2023-09-19T01:46:08;4.40;;;4.10;;
9763;SDS011;4921;43.214;27.936;2023-09-19T01:48:40;4.20;;;3.90;;
9763;SDS011;4921;43.214;27.936;2023-09-19T01:51:14;5.67;;;4.23;;
9763;SDS011;4921;43.214;27.936;2023-09-19T01:53:50;6.53;;;4.70;;
9763;SDS011;4921;43.214;27.936;2023-09-19T01:56:23;5.00;;;4.60;;
9763;SDS011;4921;43.214;27.936;2023-09-19T01:58:59;8.93;;;4.53;;
9763;SDS011;4921;43.214;27.936;2023-09-19T02:01:32;5.30;;;4.67;;
9763;SDS011;4921;43.214;27.936;2023-09-19T02:04:03;5.63;;;4.53;;
9763;SDS011;4921;43.214;27.936;2023-09-19T02:06:30;5.73;;;4.33;;
9763;SDS011;4921;43.214;27.936;2023-09-19T02:08:59;5.47;;;4.13;;
9763;SDS011;4921;43.214;27.936;2023-09-19T02:11:27;5.00;;;4.50;;
9763;SDS011;4921;43.214;27.936;2023-09-19T02:13:54;5.20;;;4.20;;
9763;SDS011;4921;43.214;27.936;2023-09-19T02:16:22;6.07;;;4.90;;
9763;SDS011;4921;43.214;27.936;2023-09-19T02:18:51;7.13;;;5.00;;
9763;SDS011;4921;43.214;27.936;2023-09-19T02:21:18;6.23;;;4.97;;
9763;SDS011;4921;43.214;27.936;2023-09-19T02:23:47;5.83;;;5.27;;
9763;SDS011;4921;43.214;27.936;2023-09-19T02:26:14;10.60;;;5.53;;
9763;SDS011;4921;43.214;27.936;2023-09-19T02:28:41;7.13;;;5.63;;
9763;SDS011;4921;43.214;27.936;2023-09-19T02:31:08;5.73;;;5.00;;
9763;SDS011;4921;43.214;27.936;2023-09-19T02:33:36;6.97;;;5.17;;
9763;SDS011;4921;43.214;27.936;2023-09-19T02:36:05;8.50;;;5.40;;
9763;SDS011;4921;43.214;27.936;2023-09-19T02:38:32;7.27;;;4.90;;
9763;SDS011;4921;43.214;27.936;2023-09-19T02:41:00;6.00;;;4.70;;
9763;SDS011;4921;43.214;27.936;2023-09-19T02:43:27;6.97;;;4.97;;
9763;SDS011;4921;43.214;27.936;2023-09-19T02:45:54;8.23;;;6.00;;
9763;SDS011;4921;43.214;27.936;2023-09-19T02:48:22;6.90;;;6.17;;
9763;SDS011;4921;43.214;27.936;2023-09-19T02:50:50;11.27;;;5.93;;
9763;SDS011;4921;43.214;27.936;2023-09-19T02:53:19;8.20;;;5.37;;
9763;SDS011;4921;43.214;27.936;2023-09-19T02:55:46;6.43;;;5.67;;
9763;SDS011;4921;43.214;27.936;2023-09-19T02:58:13;6.57;;;5.50;;
9763;SDS011;4921;43.214;27.936;2023-09-19T03:00:40;7.63;;;5.87;;
9763;SDS011;4921;43.214;27.936;2023-09-19T03:03:12;10.47;;;5.47;;
9763;SDS011;4921;43.214;27.936;2023-09-19T03:05:41;11.67;;;6.17;;
9763;SDS011;4921;43.214;27.936;2023-09-19T03:08:12;13.73;;;6.33;;
9763;SDS011;4921;43.214;27.936;2023-09-19T03:10:44;9.20;;;5.87;;
9763;SDS011;4921;43.214;27.936;2023-09-19T03:13:13;10.50;;;5.37;;
9763;SDS011;4921;43.214;27.936;2023-09-19T03:15:41;8.33;;;6.13;;
9763;SDS011;4921;43.214;27.936;2023-09-19T03:18:09;6.50;;;5.90;;
9763;SDS011;4921;43.214;27.936;2023-09-19T03:20:36;9.27;;;5.60;;
9763;SDS011;4921;43.214;27.936;2023-09-19T03:23:03;9.13;;;6.00;;
9763;SDS011;4921;43.214;27.936;2023-09-19T03:25:33;11.77;;;5.90;;
9763;SDS011;4921;43.214;27.936;2023-09-19T03:28:02;11.00;;;6.30;;
9763;SDS011;4921;43.214;27.936;2023-09-19T03:30:31;6.60;;;5.90;;
9763;SDS011;4921;43.214;27.936;2023-09-19T03:32:59;9.90;;;6.00;;
9763;SDS011;4921;43.214;27.936;2023-09-19T03:35:27;12.93;;;6.50;;
9763;SDS011;4921;43.214;27.936;2023-09-19T03:37:54;6.93;;;6.23;;
9763;SDS011;4921;43.214;27.936;2023-09-19T03:40:21;7.70;;;6.00;;
9763;SDS011;4921;43.214;27.936;2023-09-19T03:42:48;9.30;;;6.07;;
9763;SDS011;4921;43.214;27.936;2023-09-19T03:45:17;10.23;;;6.17;;
9763;SDS011;4921;43.214;27.936;2023-09-19T03:47:44;12.50;;;6.50;;
9763;SDS011;4921;43.214;27.936;2023-09-19T03:50:12;7.17;;;6.40;;
9763;SDS011;4921;43.214;27.936;2023-09-19T03:52:42;10.03;;;6.33;;
9763;SDS011;4921;43.214;27.936;2023-09-19T03:55:09;7.10;;;6.13;;
9763;SDS011;4921;43.214;27.936;2023-09-19T03:57:36;8.90;;;6.00;;
9763;SDS011;4921;43.214;27.936;2023-09-19T04:00:03;6.57;;;5.93;;
9763;SDS011;4921;43.214;27.936;2023-09-19T04:02:38;10.33;;;6.50;;
9763;SDS011;4921;43.214;27.936;2023-09-19T04:05:05;9.40;;;6.43;;
9763;SDS011;4921;43.214;27.936;2023-09-19T04:07:32;9.87;;;6.80;;
9763;SDS011;4921;43.214;27.936;2023-09-19T04:09:59;9.73;;;6.77;;
9763;SDS011;4921;43.214;27.936;2023-09-19T04:12:28;13.00;;;6.63;;
9763;SDS011;4921;43.214;27.936;2023-09-19T04:14:55;13.37;;;6.93;;
9763;SDS011;4921;43.214;27.936;2023-09-19T04:17:22;12.57;;;6.80;;
9763;SDS011;4921;43.214;27.936;2023-09-19T04:19:50;12.37;;;7.00;;
9763;SDS011;4921;43.214;27.936;2023-09-19T04:22:18;10.10;;;6.83;;
9763;SDS011;4921;43.214;27.936;2023-09-19T04:24:45;9.83;;;6.90;;
9763;SDS011;4921;43.214;27.936;2023-09-19T04:27:12;9.07;;;6.40;;
9763;SDS011;4921;43.214;27.936;2023-09-19T04:29:40;9.23;;;7.07;;
9763;SDS011;4921;43.214;27.936;2023-09-19T04:32:07;8.93;;;6.43;;
9763;SDS011;4921;43.214;27.936;2023-09-19T04:34:34;9.10;;;6.33;;
9763;SDS011;4921;43.214;27.936;2023-09-19T04:37:04;7.80;;;6.07;;
9763;SDS011;4921;43.214;27.936;2023-09-19T04:39:32;11.17;;;6.23;;
9763;SDS011;4921;43.214;27.936;2023-09-19T04:41:59;12.13;;;6.43;;
9763;SDS011;4921;43.214;27.936;2023-09-19T04:44:26;8.60;;;6.20;;
9763;SDS011;4921;43.214;27.936;2023-09-19T04:46:53;10.63;;;6.93;;
9763;SDS011;4921;43.214;27.936;2023-09-19T04:49:20;11.60;;;6.60;;
9763;SDS011;4921;43.214;27.936;2023-09-19T04:51:47;9.03;;;6.73;;
9763;SDS011;4921;43.214;27.936;2023-09-19T04:54:15;11.43;;;6.57;;
9763;SDS011;4921;43.214;27.936;2023-09-19T04:56:43;10.37;;;7.07;;
9763;SDS011;4921;43.214;27.936;2023-09-19T04:59:10;12.57;;;6.40;;
9763;SDS011;4921;43.214;27.936;2023-09-19T05:01:37;14.03;;;5.73;;
9763;SDS011;4921;43.214;27.936;2023-09-19T05:04:04;12.53;;;5.90;;
9763;SDS011;4921;43.214;27.936;2023-09-19T05:06:31;8.23;;;6.03;;
9763;SDS011;4921;43.214;27.936;2023-09-19T05:08:58;6.70;;;5.73;;
9763;SDS011;4921;43.214;27.936;2023-09-19T05:11:27;9.63;;;6.20;;
9763;SDS011;4921;43.214;27.936;2023-09-19T05:13:55;8.43;;;5.80;;
9763;SDS011;4921;43.214;27.936;2023-09-19T05:16:22;12.57;;;6.57;;
9763;SDS011;4921;43.214;27.936;2023-09-19T05:18:49;8.53;;;5.43;;
9763;SDS011;4921;43.214;27.936;2023-09-19T05:21:16;8.63;;;5.90;;
9763;SDS011;4921;43.214;27.936;2023-09-19T05:23:43;11.70;;;6.60;;
9763;SDS011;4921;43.214;27.936;2023-09-19T05:26:10;10.53;;;8.03;;
9763;SDS011;4921;43.214;27.936;2023-09-19T05:28:39;17.90;;;9.07;;
9763;SDS011;4921;43.214;27.936;2023-09-19T05:31:06;20.87;;;8.97;;
9763;SDS011;4921;43.214;27.936;2023-09-19T05:33:33;13.73;;;9.37;;
9763;SDS011;4921;43.214;27.936;2023-09-19T05:36:00;15.93;;;10.80;;
9763;SDS011;4921;43.214;27.936;2023-09-19T05:38:27;20.30;;;11.13;;
9763;SDS011;4921;43.214;27.936;2023-09-19T05:40:53;67.97;;;13.50;;
9763;SDS011;4921;43.214;27.936;2023-09-19T05:43:21;16.30;;;9.57;;
9763;SDS011;4921;43.214;27.936;2023-09-19T05:45:49;24.57;;;10.43;;
9763;SDS011;4921;43.214;27.936;2023-09-19T05:48:17;22.73;;;10.20;;
9763;SDS011;4921;43.214;27.936;2023-09-19T05:50:46;12.90;;;6.97;;
9763;SDS011;4921;43.214;27.936;2023-09-19T05:53:13;12.80;;;7.57;;
9763;SDS011;4921;43.214;27.936;2023-09-19T05:55:41;8.37;;;7.10;;
9763;SDS011;4921;43.214;27.936;2023-09-19T05:58:08;14.13;;;7.40;;
9763;SDS011;4921;43.214;27.936;2023-09-19T06:00:35;14.73;;;8.00;;
9763;SDS011;4921;43.214;27.936;2023-09-19T06:03:03;17.63;;;8.50;;
9763;SDS011;4921;43.214;27.936;2023-09-19T06:05:31;15.67;;;9.00;;
9763;SDS011;4921;43.214;27.936;2023-09-19T06:07:58;15.97;;;9.57;;
9763;SDS011;4921;43.214;27.936;2023-09-19T06:10:25;14.47;;;11.73;;
9763;SDS011;4921;43.214;27.936;2023-09-19T06:12:54;14.77;;;10.30;;
9763;SDS011;4921;43.214;27.936;2023-09-19T06:15:23;15.47;;;11.00;;
9763;SDS011;4921;43.214;27.936;2023-09-19T06:17:51;23.43;;;11.57;;
9763;SDS011;4921;43.214;27.936;2023-09-19T06:20:21;15.50;;;10.20;;
9763;SDS011;4921;43.214;27.936;2023-09-19T06:22:49;14.73;;;8.70;;
9763;SDS011;4921;43.214;27.936;2023-09-19T06:25:16;19.30;;;10.67;;
9763;SDS011;4921;43.214;27.936;2023-09-19T06:27:45;19.50;;;11.77;;
9763;SDS011;4921;43.214;27.936;2023-09-19T06:30:12;17.77;;;12.07;;
9763;SDS011;4921;43.214;27.936;2023-09-19T06:32:40;19.90;;;11.20;;
9763;SDS011;4921;43.214;27.936;2023-09-19T06:35:09;20.53;;;11.50;;
9763;SDS011;4921;43.214;27.936;2023-09-19T06:37:38;17.80;;;11.27;;
9763;SDS011;4921;43.214;27.936;2023-09-19T06:40:07;14.23;;;10.43;;
9763;SDS011;4921;43.214;27.936;2023-09-19T06:42:38;21.97;;;10.73;;
9763;SDS011;4921;43.214;27.936;2023-09-19T06:45:07;17.00;;;9.73;;
9763;SDS011;4921;43.214;27.936;2023-09-19T06:47:36;14.83;;;8.90;;
9763;SDS011;4921;43.214;27.936;2023-09-19T06:50:03;11.33;;;8.20;;
9763;SDS011;4921;43.214;27.936;2023-09-19T06:52:34;12.73;;;8.07;;
9763;SDS011;4921;43.214;27.936;2023-09-19T06:55:03;14.93;;;9.87;;
9763;SDS011;4921;43.214;27.936;2023-09-19T06:57:31;12.07;;;9.53;;
9763;SDS011;4921;43.214;27.936;2023-09-19T06:59:58;13.67;;;8.47;;
9763;SDS011;4921;43.214;27.936;2023-09-19T07:02:26;10.00;;;8.00;;
9763;SDS011;4921;43.214;27.936;2023-09-19T07:04:53;10.37;;;8.10;;
9763;SDS011;4921;43.214;27.936;2023-09-19T07:09:55;10.77;;;7.53;;
9763;SDS011;4921;43.214;27.936;2023-09-19T07:12:24;7.27;;;5.40;;
9763;SDS011;4921;43.214;27.936;2023-09-19T07:14:51;5.20;;;4.67;;
9763;SDS011;4921;43.214;27.936;2023-09-19T07:17:18;9.33;;;4.97;;
9763;SDS011;4921;43.214;27.936;2023-09-19T07:19:46;5.73;;;4.60;;
9763;SDS011;4921;43.214;27.936;2023-09-19T07:22:14;8.23;;;5.37;;
9763;SDS011;4921;43.214;27.936;2023-09-19T07:24:41;5.63;;;4.50;;
9763;SDS011;4921;43.214;27.936;2023-09-19T07:27:08;9.07;;;4.90;;
9763;SDS011;4921;43.214;27.936;2023-09-19T07:29:36;7.57;;;4.97;;
9763;SDS011;4921;43.214;27.936;2023-09-19T07:32:04;9.13;;;4.37;;
9763;SDS011;4921;43.214;27.936;2023-09-19T07:34:35;8.70;;;4.90;;
9763;SDS011;4921;43.214;27.936;2023-09-19T07:37:04;13.13;;;7.63;;
9763;SDS011;4921;43.214;27.936;2023-09-19T07:39:31;6.10;;;4.13;;
9763;SDS011;4921;43.214;27.936;2023-09-19T07:41:59;4.37;;;3.97;;
9763;SDS011;4921;43.214;27.936;2023-09-19T07:44:27;4.40;;;4.10;;
9763;SDS011;4921;43.214;27.936;2023-09-19T07:46:56;5.67;;;5.17;;
9763;SDS011;4921;43.214;27.936;2023-09-19T07:49:23;7.50;;;4.07;;
9763;SDS011;4921;43.214;27.936;2023-09-19T07:51:51;4.23;;;3.77;;
9763;SDS011;4921;43.214;27.936;2023-09-19T07:54:20;7.00;;;4.20;;
9763;SDS011;4921;43.214;27.936;2023-09-19T07:56:47;4.73;;;3.87;;
9763;SDS011;4921;43.214;27.936;2023-09-19T07:59:14;4.00;;;3.53;;
9763;SDS011;4921;43.214;27.936;2023-09-19T08:01:42;8.37;;;4.10;;
9763;SDS011;4921;43.214;27.936;2023-09-19T08:04:11;5.50;;;3.90;;
9763;SDS011;4921;43.214;27.936;2023-09-19T08:06:39;4.80;;;4.30;;
9763;SDS011;4921;43.214;27.936;2023-09-19T08:09:06;6.43;;;4.10;;
9763;SDS011;4921;43.214;27.936;2023-09-19T08:11:36;6.70;;;3.70;;
9763;SDS011;4921;43.214;27.936;2023-09-19T08:14:04;5.33;;;4.07;;
9763;SDS011;4921;43.214;27.936;2023-09-19T08:16:33;3.87;;;3.40;;
9763;SDS011;4921;43.214;27.936;2023-09-19T08:19:00;10.67;;;4.63;;
9763;SDS011;4921;43.214;27.936;2023-09-19T08:21:29;4.83;;;3.37;;
9763;SDS011;4921;43.214;27.936;2023-09-19T08:23:57;4.87;;;4.40;;
9763;SDS011;4921;43.214;27.936;2023-09-19T08:26:24;5.30;;;4.80;;
9763;SDS011;4921;43.214;27.936;2023-09-19T08:28:52;3.77;;;3.50;;
9763;SDS011;4921;43.214;27.936;2023-09-19T08:31:21;4.37;;;3.37;;
9763;SDS011;4921;43.214;27.936;2023-09-19T08:33:48;3.97;;;3.60;;
9763;SDS011;4921;43.214;27.936;2023-09-19T08:36:18;5.27;;;3.67;;
9763;SDS011;4921;43.214;27.936;2023-09-19T08:38:47;4.30;;;3.17;;
9763;SDS011;4921;43.214;27.936;2023-09-19T08:41:14;4.03;;;3.73;;
9763;SDS011;4921;43.214;27.936;2023-09-19T08:43:47;6.27;;;3.97;;
9763;SDS011;4921;43.214;27.936;2023-09-19T08:46:16;4.53;;;3.47;;
9763;SDS011;4921;43.214;27.936;2023-09-19T08:48:50;5.33;;;3.60;;
9763;SDS011;4921;43.214;27.936;2023-09-19T08:51:26;3.50;;;3.20;;
9763;SDS011;4921;43.214;27.936;2023-09-19T08:54:01;3.83;;;3.53;;
9763;SDS011;4921;43.214;27.936;2023-09-19T08:56:30;4.93;;;3.57;;
9763;SDS011;4921;43.214;27.936;2023-09-19T08:59:00;3.87;;;3.60;;
9763;SDS011;4921;43.214;27.936;2023-09-19T09:01:31;4.30;;;3.80;;
9763;SDS011;4921;43.214;27.936;2023-09-19T09:03:58;3.87;;;3.40;;
9763;SDS011;4921;43.214;27.936;2023-09-19T09:06:25;4.50;;;3.77;;
9763;SDS011;4921;43.214;27.936;2023-09-19T09:08:53;3.50;;;3.30;;
9763;SDS011;4921;43.214;27.936;2023-09-19T09:11:22;3.40;;;3.20;;
9763;SDS011;4921;43.214;27.936;2023-09-19T09:13:50;3.93;;;3.63;;
9763;SDS011;4921;43.214;27.936;2023-09-19T09:16:17;4.10;;;3.70;;
9763;SDS011;4921;43.214;27.936;2023-09-19T09:18:44;5.70;;;3.93;;
9763;SDS011;4921;43.214;27.936;2023-09-19T09:21:11;4.03;;;3.63;;
9763;SDS011;4921;43.214;27.936;2023-09-19T09:23:40;4.80;;;4.00;;
9763;SDS011;4921;43.214;27.936;2023-09-19T09:26:07;5.67;;;3.47;;
9763;SDS011;4921;43.214;27.936;2023-09-19T09:28:38;4.57;;;3.53;;
9763;SDS011;4921;43.214;27.936;2023-09-19T09:31:21;4.03;;;3.60;;
9763;SDS011;4921;43.214;27.936;2023-09-19T09:33:52;4.37;;;3.70;;
9763;SDS011;4921;43.214;27.936;2023-09-19T09:36:33;3.50;;;3.30;;
9763;SDS011;4921;43.214;27.936;2023-09-19T09:39:02;5.27;;;4.20;;
9763;SDS011;4921;43.214;27.936;2023-09-19T09:41:41;3.50;;;3.23;;
9763;SDS011;4921;43.214;27.936;2023-09-19T09:44:16;4.17;;;3.07;;
9763;SDS011;4921;43.214;27.936;2023-09-19T09:46:45;3.40;;;3.20;;
9763;SDS011;4921;43.214;27.936;2023-09-19T09:49:47;4.07;;;3.63;;
9763;SDS011;4921;43.214;27.936;2023-09-19T09:52:19;6.13;;;4.60;;
9763;SDS011;4921;43.214;27.936;2023-09-19T09:54:58;5.30;;;3.80;;
9763;SDS011;4921;43.214;27.936;2023-09-19T09:57:27;5.33;;;3.67;;
9763;SDS011;4921;43.214;27.936;2023-09-19T09:59:57;3.77;;;3.47;;
9763;SDS011;4921;43.214;27.936;2023-09-19T10:02:41;5.73;;;3.70;;
9763;SDS011;4921;43.214;27.936;2023-09-19T10:05:12;4.30;;;3.77;;
9763;SDS011;4921;43.214;27.936;2023-09-19T10:07:47;4.20;;;3.60;;
9763;SDS011;4921;43.214;27.936;2023-09-19T10:10:28;6.50;;;3.63;;
9763;SDS011;4921;43.214;27.936;2023-09-19T10:13:04;3.87;;;3.53;;
9763;SDS011;4921;43.214;27.936;2023-09-19T10:15:34;4.27;;;3.87;;
9763;SDS011;4921;43.214;27.936;2023-09-19T10:18:06;3.40;;;3.10;;
9763;SDS011;4921;43.214;27.936;2023-09-19T10:20:34;5.57;;;3.67;;
9763;SDS011;4921;43.214;27.936;2023-09-19T10:23:05;4.40;;;3.20;;
9763;SDS011;4921;43.214;27.936;2023-09-19T10:25:38;3.20;;;3.00;;
9763;SDS011;4921;43.214;27.936;2023-09-19T10:28:06;3.60;;;3.30;;
9763;SDS011;4921;43.214;27.936;2023-09-19T10:30:42;3.70;;;3.40;;
9763;SDS011;4921;43.214;27.936;2023-09-19T10:33:10;4.10;;;3.43;;
9763;SDS011;4921;43.214;27.936;2023-09-19T10:35:38;4.17;;;3.77;;
9763;SDS011;4921;43.214;27.936;2023-09-19T10:38:07;3.63;;;3.33;;
9763;SDS011;4921;43.214;27.936;2023-09-19T10:40:37;4.60;;;3.60;;
9763;SDS011;4921;43.214;27.936;2023-09-19T10:43:11;5.63;;;3.70;;
9763;SDS011;4921;43.214;27.936;2023-09-19T10:45:40;4.07;;;3.60;;
9763;SDS011;4921;43.214;27.936;2023-09-19T10:48:12;4.23;;;3.43;;
9763;SDS011;4921;43.214;27.936;2023-09-19T10:50:45;5.50;;;3.57;;
9763;SDS011;4921;43.214;27.936;2023-09-19T10:53:15;5.70;;;4.50;;
9763;SDS011;4921;43.214;27.936;2023-09-19T10:55:48;4.40;;;4.00;;
9763;SDS011;4921;43.214;27.936;2023-09-19T10:58:26;5.90;;;4.07;;
9763;SDS011;4921;43.214;27.936;2023-09-19T11:00:57;3.90;;;3.57;;
9763;SDS011;4921;43.214;27.936;2023-09-19T11:03:37;5.67;;;3.83;;
9763;SDS011;4921;43.214;27.936;2023-09-19T11:06:09;3.87;;;3.53;;
9763;SDS011;4921;43.214;27.936;2023-09-19T11:08:58;9.13;;;3.73;;
9763;SDS011;4921;43.214;27.936;2023-09-19T11:11:49;4.03;;;3.50;;
9763;SDS011;4921;43.214;27.936;2023-09-19T11:14:40;5.60;;;3.80;;
9763;SDS011;4921;43.214;27.936;2023-09-19T11:20:26;4.30;;;3.90;;
9763;SDS011;4921;43.214;27.936;2023-09-19T11:23:19;3.90;;;3.60;;
9763;SDS011;4921;43.214;27.936;2023-09-19T11:25:51;4.53;;;3.83;;
9763;SDS011;4921;43.214;27.936;2023-09-19T11:28:32;6.27;;;4.17;;
9763;SDS011;4921;43.214;27.936;2023-09-19T11:40:47;4.13;;;3.70;;
9763;SDS011;4921;43.214;27.936;2023-09-19T11:43:36;4.20;;;3.80;;
9763;SDS011;4921;43.214;27.936;2023-09-19T11:46:08;7.40;;;4.20;;
9763;SDS011;4921;43.214;27.936;2023-09-19T11:48:38;5.80;;;3.80;;
9763;SDS011;4921;43.214;27.936;2023-09-19T11:51:15;3.77;;;3.47;;
9763;SDS011;4921;43.214;27.936;2023-09-19T11:53:52;6.57;;;4.30;;
9763;SDS011;4921;43.214;27.936;2023-09-19T11:56:20;6.13;;;4.10;;
9763;SDS011;4921;43.214;27.936;2023-09-19T11:58:51;9.60;;;4.20;;
9763;SDS011;4921;43.214;27.936;2023-09-19T12:01:24;3.80;;;3.60;;
9763;SDS011;4921;43.214;27.936;2023-09-19T12:03:55;5.30;;;3.80;;
9763;SDS011;4921;43.214;27.936;2023-09-19T12:06:26;4.23;;;3.90;;
9763;SDS011;4921;43.214;27.936;2023-09-19T12:08:54;3.87;;;3.60;;
9763;SDS011;4921;43.214;27.936;2023-09-19T12:11:27;4.07;;;3.77;;
9763;SDS011;4921;43.214;27.936;2023-09-19T12:13:58;5.67;;;3.90;;
9763;SDS011;4921;43.214;27.936;2023-09-19T12:16:26;5.90;;;3.60;;
9763;SDS011;4921;43.214;27.936;2023-09-19T12:18:56;4.07;;;3.77;;
9763;SDS011;4921;43.214;27.936;2023-09-19T12:21:26;4.47;;;4.07;;
9763;SDS011;4921;43.214;27.936;2023-09-19T12:26:44;4.57;;;3.93;;
9763;SDS011;4921;43.214;27.936;2023-09-19T12:29:13;3.97;;;3.67;;
9763;SDS011;4921;43.214;27.936;2023-09-19T12:31:52;6.07;;;3.97;;
9763;SDS011;4921;43.214;27.936;2023-09-19T12:34:23;4.20;;;3.83;;
9763;SDS011;4921;43.214;27.936;2023-09-19T12:37:07;7.93;;;4.20;;
9763;SDS011;4921;43.214;27.936;2023-09-19T12:39:41;6.00;;;3.90;;
9763;SDS011;4921;43.214;27.936;2023-09-19T12:42:13;3.87;;;3.47;;
9763;SDS011;4921;43.214;27.936;2023-09-19T12:44:42;4.77;;;4.00;;
9763;SDS011;4921;43.214;27.936;2023-09-19T12:47:11;4.27;;;3.90;;
9763;SDS011;4921;43.214;27.936;2023-09-19T12:52:45;7.30;;;4.20;;
9763;SDS011;4921;43.214;27.936;2023-09-19T12:55:20;7.23;;;4.40;;
9763;SDS011;4921;43.214;27.936;2023-09-19T12:57:58;4.33;;;3.93;;
9763;SDS011;4921;43.214;27.936;2023-09-19T13:00:37;5.27;;;4.10;;
9763;SDS011;4921;43.214;27.936;2023-09-19T13:03:11;5.43;;;4.07;;
9763;SDS011;4921;43.214;27.936;2023-09-19T13:05:50;4.73;;;4.13;;
9763;SDS011;4921;43.214;27.936;2023-09-19T13:08:24;4.33;;;3.93;;
9763;SDS011;4921;43.214;27.936;2023-09-19T13:11:05;4.93;;;4.00;;
9763;SDS011;4921;43.214;27.936;2023-09-19T13:13:38;4.37;;;4.07;;
9763;SDS011;4921;43.214;27.936;2023-09-19T13:16:07;5.83;;;4.37;;
9763;SDS011;4921;43.214;27.936;2023-09-19T13:18:47;4.83;;;4.27;;
9763;SDS011;4921;43.214;27.936;2023-09-19T13:21:26;5.97;;;4.30;;
9763;SDS011;4921;43.214;27.936;2023-09-19T13:26:46;4.17;;;3.87;;
9763;SDS011;4921;43.214;27.936;2023-09-19T13:29:13;5.97;;;4.13;;
9763;SDS011;4921;43.214;27.936;2023-09-19T13:31:45;5.60;;;4.23;;
9763;SDS011;4921;43.214;27.936;2023-09-19T13:34:12;6.07;;;4.40;;
9763;SDS011;4921;43.214;27.936;2023-09-19T13:36:41;3.90;;;3.60;;
9763;SDS011;4921;43.214;27.936;2023-09-19T13:39:08;4.43;;;3.60;;
9763;SDS011;4921;43.214;27.936;2023-09-19T13:41:39;7.20;;;4.00;;
9763;SDS011;4921;43.214;27.936;2023-09-19T13:44:08;4.20;;;3.80;;
9763;SDS011;4921;43.214;27.936;2023-09-19T13:46:35;3.97;;;3.53;;
9763;SDS011;4921;43.214;27.936;2023-09-19T13:49:02;4.73;;;3.87;;
9763;SDS011;4921;43.214;27.936;2023-09-19T13:51:30;4.43;;;3.70;;
9763;SDS011;4921;43.214;27.936;2023-09-19T13:53:57;4.10;;;3.73;;
9763;SDS011;4921;43.214;27.936;2023-09-19T13:56:25;4.40;;;3.80;;
9763;SDS011;4921;43.214;27.936;2023-09-19T13:58:54;5.13;;;3.93;;
9763;SDS011;4921;43.214;27.936;2023-09-19T14:01:21;6.40;;;3.80;;
9763;SDS011;4921;43.214;27.936;2023-09-19T14:03:48;4.57;;;4.10;;
9763;SDS011;4921;43.214;27.936;2023-09-19T14:06:16;5.70;;;3.93;;
9763;SDS011;4921;43.214;27.936;2023-09-19T14:08:43;10.00;;;4.40;;
9763;SDS011;4921;43.214;27.936;2023-09-19T14:11:12;5.33;;;4.50;;
9763;SDS011;4921;43.214;27.936;2023-09-19T14:13:41;7.27;;;4.37;;
9763;SDS011;4921;43.214;27.936;2023-09-19T14:16:13;7.70;;;4.00;;
9763;SDS011;4921;43.214;27.936;2023-09-19T14:18:40;7.87;;;3.97;;
9763;SDS011;4921;43.214;27.936;2023-09-19T14:21:07;6.73;;;3.70;;
9763;SDS011;4921;43.214;27.936;2023-09-19T14:23:36;6.07;;;3.70;;
9763;SDS011;4921;43.214;27.936;2023-09-19T14:26:03;6.33;;;4.07;;
9763;SDS011;4921;43.214;27.936;2023-09-19T14:28:31;6.90;;;4.10;;
9763;SDS011;4921;43.214;27.936;2023-09-19T14:31:03;5.63;;;4.10;;
9763;SDS011;4921;43.214;27.936;2023-09-19T14:33:32;3.83;;;3.30;;
9763;SDS011;4921;43.214;27.936;2023-09-19T14:36:02;5.43;;;4.00;;
9763;SDS011;4921;43.214;27.936;2023-09-19T14:38:31;7.30;;;4.03;;
9763;SDS011;4921;43.214;27.936;2023-09-19T14:41:00;3.97;;;3.57;;
9763;SDS011;4921;43.214;27.936;2023-09-19T14:43:27;7.63;;;3.50;;
9763;SDS011;4921;43.214;27.936;2023-09-19T14:45:55;4.93;;;3.73;;
9763;SDS011;4921;43.214;27.936;2023-09-19T14:48:23;7.97;;;4.00;;
9763;SDS011;4921;43.214;27.936;2023-09-19T14:50:52;5.80;;;3.60;;
9763;SDS011;4921;43.214;27.936;2023-09-19T14:53:20;11.17;;;4.03;;
9763;SDS011;4921;43.214;27.936;2023-09-19T14:55:47;6.63;;;3.67;;
9763;SDS011;4921;43.214;27.936;2023-09-19T14:58:17;4.30;;;3.67;;
9763;SDS011;4921;43.214;27.936;2023-09-19T15:00:44;5.83;;;4.07;;
9763;SDS011;4921;43.214;27.936;2023-09-19T15:03:11;6.90;;;5.10;;
9763;SDS011;4921;43.214;27.936;2023-09-19T15:05:39;5.63;;;3.77;;
9763;SDS011;4921;43.214;27.936;2023-09-19T15:08:08;5.87;;;3.60;;
9763;SDS011;4921;43.214;27.936;2023-09-19T15:10:36;4.03;;;3.37;;
9763;SDS011;4921;43.214;27.936;2023-09-19T15:13:03;6.73;;;3.83;;
9763;SDS011;4921;43.214;27.936;2023-09-19T15:15:31;12.03;;;6.40;;
9763;SDS011;4921;43.214;27.936;2023-09-19T15:17:59;13.63;;;8.60;;
9763;SDS011;4921;43.214;27.936;2023-09-19T15:20:26;6.83;;;5.70;;
9763;SDS011;4921;43.214;27.936;2023-09-19T15:22:56;34.13;;;17.23;;
9763;SDS011;4921;43.214;27.936;2023-09-19T15:25:25;6.07;;;4.13;;
9763;SDS011;4921;43.214;27.936;2023-09-19T15:27:52;8.10;;;4.30;;
9763;SDS011;4921;43.214;27.936;2023-09-19T15:30:19;5.80;;;3.53;;
9763;SDS011;4921;43.214;27.936;2023-09-19T15:32:50;7.80;;;4.10;;
9763;SDS011;4921;43.214;27.936;2023-09-19T15:35:17;5.87;;;3.90;;
9763;SDS011;4921;43.214;27.936;2023-09-19T15:37:44;6.47;;;3.90;;
9763;SDS011;4921;43.214;27.936;2023-09-19T15:40:11;5.03;;;3.93;;